createdAt,value
2018-07-06T00:02:11.189Z,20.79
2018-07-06T00:04:51.754Z,20.69
2018-07-06T00:07:31.960Z,20.67
2018-07-06T00:10:12.341Z,20.59
2018-07-06T00:12:52.636Z,20.50
2018-07-06T00:15:33.180Z,20.41
2018-07-06T00:18:13.686Z,20.37
2018-07-06T00:20:53.955Z,20.30
2018-07-06T00:23:34.291Z,20.25
2018-07-06T00:26:14.585Z,20.25
2018-07-06T00:28:54.795Z,20.12
2018-07-06T00:31:35.167Z,20.13
2018-07-06T00:34:15.540Z,20.07
2018-07-06T00:36:55.972Z,20.09
2018-07-06T00:39:36.545Z,20.03
2018-07-06T00:42:16.941Z,20.01
2018-07-06T00:44:57.205Z,19.98
2018-07-06T00:47:37.504Z,19.95
2018-07-06T00:50:17.733Z,19.97
2018-07-06T00:52:57.991Z,19.96
2018-07-06T00:55:38.288Z,19.93
2018-07-06T00:58:23.166Z,19.95
2018-07-06T01:01:03.932Z,19.93
2018-07-06T01:03:44.309Z,19.93
2018-07-06T01:06:24.622Z,19.93
2018-07-06T01:09:04.913Z,19.93
2018-07-06T01:11:45.325Z,19.94
2018-07-06T01:14:25.702Z,19.95
2018-07-06T01:17:10.144Z,19.98
2018-07-06T01:19:50.552Z,19.93
2018-07-06T01:22:30.868Z,19.88
2018-07-06T01:25:11.215Z,19.87
2018-07-06T01:27:51.550Z,19.92
2018-07-06T01:30:31.866Z,19.86
2018-07-06T01:33:12.157Z,19.83
2018-07-06T01:35:52.465Z,19.83
2018-07-06T01:38:32.930Z,19.77
2018-07-06T01:41:13.213Z,19.79
2018-07-06T01:43:53.436Z,19.77
2018-07-06T01:46:33.690Z,19.75
2018-07-06T01:49:13.888Z,19.71
2018-07-06T01:51:54.188Z,19.72
2018-07-06T01:54:34.529Z,19.65
2018-07-06T01:57:14.937Z,19.63
2018-07-06T01:59:55.138Z,19.56
2018-07-06T02:02:35.558Z,19.45
2018-07-06T02:05:15.894Z,19.41
2018-07-06T02:07:56.270Z,19.36
2018-07-06T02:10:36.547Z,19.28
2018-07-06T02:13:16.914Z,19.19
2018-07-06T02:15:57.261Z,19.08
2018-07-06T02:18:37.749Z,19.06
2018-07-06T02:21:18.088Z,18.98
2018-07-06T02:23:58.447Z,18.95
2018-07-06T02:26:39.782Z,18.90
2018-07-06T02:29:20.088Z,18.89
2018-07-06T02:32:00.346Z,18.82
2018-07-06T02:34:40.859Z,18.80
2018-07-06T02:37:21.219Z,18.71
2018-07-06T02:40:01.784Z,18.67
2018-07-06T02:42:42.356Z,18.67
2018-07-06T02:45:22.990Z,18.66
2018-07-06T02:48:03.413Z,18.63
2018-07-06T02:50:43.755Z,18.68
2018-07-06T02:53:24.354Z,18.71
2018-07-06T02:56:04.593Z,18.77
2018-07-06T02:58:45.099Z,18.74
2018-07-06T03:01:25.489Z,18.80
2018-07-06T03:04:05.788Z,18.80
2018-07-06T03:06:46.237Z,18.73
2018-07-06T03:09:26.670Z,18.74
2018-07-06T03:12:06.969Z,18.71
2018-07-06T03:14:47.394Z,18.75
2018-07-06T03:17:27.749Z,18.81
2018-07-06T03:20:08.071Z,18.83
2018-07-06T03:22:48.354Z,18.80
2018-07-06T03:25:28.967Z,18.85
2018-07-06T03:28:09.257Z,18.84
2018-07-06T03:30:49.578Z,18.89
2018-07-06T03:33:29.870Z,18.79
2018-07-06T03:36:10.251Z,18.79
2018-07-06T03:38:50.594Z,18.75
2018-07-06T03:41:31.017Z,18.74
2018-07-06T03:44:11.342Z,18.71
2018-07-06T03:46:51.678Z,18.70
2018-07-06T03:49:32.014Z,18.69
2018-07-06T03:52:12.219Z,18.71
2018-07-06T03:54:55.380Z,18.73
2018-07-06T03:57:36.599Z,18.75
2018-07-06T04:00:17.078Z,18.72
2018-07-06T04:02:57.454Z,18.69
2018-07-06T04:05:37.789Z,18.77
2018-07-06T04:08:18.170Z,18.82
2018-07-06T04:10:58.393Z,18.82
2018-07-06T04:13:38.711Z,18.85
2018-07-06T04:16:19.152Z,18.91
2018-07-06T04:19:06.826Z,18.95
2018-07-06T04:21:47.273Z,18.98
2018-07-06T04:24:27.833Z,18.99
2018-07-06T04:27:08.286Z,19.00
2018-07-06T04:29:48.759Z,19.08
2018-07-06T04:32:29.126Z,19.09
2018-07-06T04:35:09.321Z,19.20
2018-07-06T04:37:49.833Z,19.28
2018-07-06T04:40:30.325Z,19.40
2018-07-06T04:43:10.510Z,19.59
2018-07-06T04:45:50.925Z,19.65
2018-07-06T04:48:31.324Z,19.77
2018-07-06T04:51:11.940Z,19.63
2018-07-06T04:53:52.469Z,19.67
2018-07-06T04:56:32.825Z,19.66
2018-07-06T04:59:13.339Z,19.66
2018-07-06T05:01:53.621Z,19.71
2018-07-06T05:04:34.140Z,19.81
2018-07-06T05:07:14.504Z,19.96
2018-07-06T05:09:54.968Z,19.97
2018-07-06T05:12:35.306Z,19.84
2018-07-06T05:15:15.729Z,19.85
2018-07-06T05:17:56.168Z,19.91
2018-07-06T05:20:36.561Z,19.86
2018-07-06T05:23:16.886Z,19.85
2018-07-06T05:25:57.284Z,19.96
2018-07-06T05:28:37.700Z,20.01
2018-07-06T05:31:18.622Z,20.15
2018-07-06T05:33:58.956Z,20.39
2018-07-06T05:36:39.318Z,20.50
2018-07-06T05:39:19.742Z,20.45
2018-07-06T05:42:00.251Z,20.38
2018-07-06T05:44:40.537Z,20.38
2018-07-06T05:47:20.979Z,20.40
2018-07-06T05:50:01.535Z,20.55
2018-07-06T05:52:42.118Z,20.65
2018-07-06T05:55:22.400Z,20.78
2018-07-06T05:58:02.787Z,20.73
2018-07-06T06:00:43.170Z,20.66
2018-07-06T06:03:23.390Z,20.67
2018-07-06T06:06:03.687Z,20.67
2018-07-06T06:08:31.660Z,20.63
2018-07-06T06:11:00.594Z,20.73
2018-07-06T06:13:29.592Z,21.06
2018-07-06T06:18:25.551Z,21.84
2018-07-06T06:20:54.514Z,22.44
2018-07-06T06:23:23.452Z,22.25
2018-07-06T06:25:52.429Z,22.10
2018-07-06T06:28:21.409Z,22.12
2018-07-06T06:30:50.612Z,21.84
2018-07-06T06:33:19.604Z,21.56
2018-07-06T06:35:48.602Z,21.44
2018-07-06T06:38:17.546Z,21.15
2018-07-06T06:40:46.594Z,20.86
2018-07-06T06:43:16.277Z,20.66
2018-07-06T06:45:45.202Z,20.24
2018-07-06T06:48:14.146Z,20.06
2018-07-06T06:50:43.074Z,19.88
2018-07-06T06:53:12.051Z,19.85
2018-07-06T06:55:41.002Z,19.79
2018-07-06T06:58:09.941Z,19.55
2018-07-06T07:00:38.886Z,19.46
2018-07-06T07:03:07.881Z,19.54
2018-07-06T07:05:36.851Z,19.51
2018-07-06T07:08:05.781Z,19.60
2018-07-06T07:10:34.896Z,19.74
2018-07-06T07:13:03.812Z,19.74
2018-07-06T07:15:32.824Z,19.87
2018-07-06T07:18:01.789Z,20.35
2018-07-06T07:20:30.781Z,20.51
2018-07-06T07:22:59.811Z,20.56
2018-07-06T07:25:28.840Z,20.52
2018-07-06T07:27:57.794Z,20.45
2018-07-06T07:30:26.761Z,20.36
2018-07-06T07:32:55.691Z,20.26
2018-07-06T07:35:24.636Z,19.99
2018-07-06T07:37:53.562Z,19.98
2018-07-06T07:40:22.488Z,20.04
2018-07-06T07:42:51.450Z,19.99
2018-07-06T07:45:20.466Z,19.99
2018-07-06T07:47:49.438Z,19.97
2018-07-06T07:50:18.381Z,20.07
2018-07-06T07:52:58.751Z,19.95
2018-07-06T07:55:27.672Z,19.99
2018-07-06T07:57:56.649Z,20.14
2018-07-06T08:00:26.009Z,20.33
2018-07-06T08:02:54.859Z,20.33
2018-07-06T08:05:23.821Z,20.45
2018-07-06T08:07:52.778Z,20.32
2018-07-06T08:10:21.777Z,20.23
2018-07-06T08:12:50.762Z,20.12
2018-07-06T08:15:19.674Z,20.17
2018-07-06T08:17:48.622Z,20.03
2018-07-06T08:20:17.545Z,19.99
2018-07-06T08:22:46.581Z,19.95
2018-07-06T08:25:15.516Z,20.07
2018-07-06T08:27:44.452Z,20.16
2018-07-06T08:30:13.414Z,20.19
2018-07-06T08:32:42.342Z,20.17
2018-07-06T08:35:22.703Z,20.46
2018-07-06T08:38:03.621Z,21.03
2018-07-06T08:40:32.590Z,21.40
2018-07-06T08:43:02.815Z,21.06
2018-07-06T08:45:32.610Z,21.34
2018-07-06T08:48:01.519Z,21.56
2018-07-06T08:50:30.473Z,21.82
2018-07-06T08:52:59.607Z,22.22
2018-07-06T08:55:28.926Z,22.60
2018-07-06T08:57:58.615Z,22.41
2018-07-06T09:00:27.540Z,22.15
2018-07-06T09:02:56.493Z,22.23
2018-07-06T09:05:25.452Z,22.17
2018-07-06T09:07:54.748Z,22.18
2018-07-06T09:10:23.669Z,22.17
2018-07-06T09:12:52.647Z,22.30
2018-07-06T09:15:21.617Z,22.65
2018-07-06T09:17:50.565Z,23.71
2018-07-06T09:20:19.654Z,23.72
2018-07-06T09:22:48.634Z,24.13
2018-07-06T09:25:17.689Z,24.61
2018-07-06T09:27:46.564Z,24.34
2018-07-06T09:30:15.512Z,24.00
2018-07-06T09:32:44.435Z,23.36
2018-07-06T09:35:13.516Z,23.61
2018-07-06T09:37:42.299Z,24.01
2018-07-06T09:40:11.242Z,24.33
2018-07-06T09:42:40.177Z,24.44
2018-07-06T09:45:09.127Z,24.66
2018-07-06T09:47:38.076Z,24.79
2018-07-06T09:50:07.041Z,25.77
2018-07-06T09:52:35.973Z,25.49
2018-07-06T09:55:04.910Z,26.58
2018-07-06T09:57:33.852Z,26.38
2018-07-06T10:00:02.829Z,26.64
2018-07-06T10:02:31.862Z,27.42
2018-07-06T10:05:00.871Z,27.67
2018-07-06T10:07:29.864Z,27.40
2018-07-06T10:09:58.810Z,27.16
2018-07-06T10:12:27.826Z,26.58
2018-07-06T10:14:56.973Z,25.85
2018-07-06T10:17:25.992Z,26.03
2018-07-06T10:19:54.984Z,26.58
2018-07-06T10:22:23.849Z,26.84
2018-07-06T10:24:52.798Z,27.35
2018-07-06T10:27:26.640Z,26.84
2018-07-06T10:30:03.277Z,26.89
2018-07-06T10:32:32.212Z,27.45
2018-07-06T10:35:01.273Z,27.48
2018-07-06T10:37:30.670Z,27.31
2018-07-06T10:39:59.652Z,27.60
2018-07-06T10:42:28.582Z,27.80
2018-07-06T10:44:57.553Z,27.85
2018-07-06T10:47:26.480Z,26.72
2018-07-06T10:49:55.410Z,27.38
2018-07-06T10:52:24.360Z,26.94
2018-07-06T10:54:53.306Z,26.80
2018-07-06T10:57:22.221Z,27.76
2018-07-06T10:59:51.190Z,27.77
2018-07-06T11:02:20.150Z,28.18
2018-07-06T11:04:49.098Z,28.04
2018-07-06T11:07:18.040Z,27.47
2018-07-06T11:09:47.316Z,27.11
2018-07-06T11:12:16.661Z,28.01
2018-07-06T11:14:48.509Z,27.95
2018-07-06T11:17:22.950Z,27.63
2018-07-06T11:19:51.870Z,27.32
2018-07-06T11:22:20.863Z,27.57
2018-07-06T11:24:49.770Z,27.89
2018-07-06T11:27:18.690Z,27.85
2018-07-06T11:29:47.727Z,27.42
2018-07-06T11:32:16.661Z,27.35
2018-07-06T11:34:45.605Z,27.00
2018-07-06T11:37:14.487Z,27.27
2018-07-06T11:39:43.412Z,27.22
2018-07-06T11:42:12.405Z,27.54
2018-07-06T11:44:41.325Z,28.41
2018-07-06T11:47:10.289Z,29.32
2018-07-06T11:49:39.229Z,29.23
2018-07-06T11:52:08.173Z,29.23
2018-07-06T11:54:37.091Z,29.37
2018-07-06T11:57:06.009Z,28.57
2018-07-06T11:59:34.932Z,29.03
2018-07-06T12:02:03.834Z,28.46
2018-07-06T12:04:32.966Z,28.16
2018-07-06T12:07:01.792Z,27.80
2018-07-06T12:09:30.744Z,27.79
2018-07-06T12:12:00.166Z,28.48
2018-07-06T12:14:29.166Z,29.02
2018-07-06T12:16:58.144Z,30.03
2018-07-06T12:19:27.061Z,30.29
2018-07-06T12:21:56.154Z,29.88
2018-07-06T12:24:25.085Z,29.16
2018-07-06T12:26:54.015Z,29.72
2018-07-06T12:29:23.003Z,29.10
2018-07-06T12:31:52.062Z,28.76
2018-07-06T12:34:21.124Z,28.82
2018-07-06T12:36:54.851Z,28.50
2018-07-06T12:39:24.240Z,27.81
2018-07-06T12:41:53.156Z,27.02
2018-07-06T12:44:22.134Z,26.29
2018-07-06T12:46:51.190Z,26.44
2018-07-06T12:49:20.156Z,25.80
2018-07-06T12:51:49.176Z,25.81
2018-07-06T12:54:18.119Z,25.84
2018-07-06T12:56:47.026Z,26.08
2018-07-06T12:59:15.953Z,26.12
2018-07-06T13:01:44.880Z,26.27
2018-07-06T13:04:13.781Z,25.89
2018-07-06T13:06:42.808Z,25.60
2018-07-06T13:09:11.746Z,25.34
2018-07-06T13:11:40.718Z,25.08
2018-07-06T13:14:09.694Z,25.13
2018-07-06T13:16:38.595Z,25.08
2018-07-06T13:19:07.525Z,25.32
2018-07-06T13:21:36.461Z,25.31
2018-07-06T13:24:05.654Z,25.22
2018-07-06T13:26:34.615Z,25.03
2018-07-06T13:29:03.541Z,25.30
2018-07-06T13:31:32.509Z,25.05
2018-07-06T13:34:01.462Z,24.86
2018-07-06T13:36:30.435Z,24.70
2018-07-06T13:38:59.392Z,24.44
2018-07-06T13:41:28.405Z,24.51
2018-07-06T13:43:57.325Z,24.50
2018-07-06T13:46:26.278Z,24.73
2018-07-06T13:48:55.295Z,24.61
2018-07-06T13:51:25.020Z,24.49
2018-07-06T13:53:53.954Z,24.03
2018-07-06T13:56:22.959Z,23.98
2018-07-06T13:58:51.911Z,24.05
2018-07-06T14:01:21.242Z,24.08
2018-07-06T14:03:50.190Z,24.33
2018-07-06T14:06:19.241Z,24.33
2018-07-06T14:08:48.259Z,24.50
2018-07-06T14:11:17.969Z,24.81
2018-07-06T14:13:46.934Z,25.27
2018-07-06T14:16:15.905Z,25.37
2018-07-06T14:18:44.816Z,24.68
2018-07-06T14:21:13.766Z,24.71
2018-07-06T14:23:42.752Z,24.38
2018-07-06T14:26:11.765Z,24.66
2018-07-06T14:28:40.751Z,24.53
2018-07-06T14:31:11.468Z,24.22
2018-07-06T14:33:40.473Z,23.98
2018-07-06T14:36:09.689Z,24.01
2018-07-06T14:38:38.677Z,24.08
2018-07-06T14:41:07.685Z,23.91
2018-07-06T14:43:36.597Z,23.75
2018-07-06T14:46:05.536Z,23.76
2018-07-06T14:48:34.531Z,23.64
2018-07-06T14:51:03.525Z,23.73
2018-07-06T14:53:32.462Z,23.52
2018-07-06T14:56:01.399Z,23.41
2018-07-06T14:58:30.444Z,23.34
2018-07-06T15:01:00.497Z,23.07
2018-07-06T15:03:29.430Z,23.31
2018-07-06T15:05:58.449Z,23.65
2018-07-06T15:08:27.365Z,23.56
2018-07-06T15:10:56.646Z,23.41
2018-07-06T15:13:25.577Z,23.11
2018-07-06T15:15:54.714Z,23.13
2018-07-06T15:18:23.696Z,22.98
2018-07-06T15:20:52.565Z,22.86
2018-07-06T15:23:21.476Z,22.86
2018-07-06T15:25:50.434Z,22.85
2018-07-06T15:28:19.361Z,22.87
2018-07-06T15:30:48.316Z,22.88
2018-07-06T15:33:17.231Z,23.01
2018-07-06T15:35:46.166Z,23.24
2018-07-06T15:38:15.110Z,23.48
2018-07-06T15:40:44.033Z,24.13
2018-07-06T15:43:13.317Z,24.86
2018-07-06T15:45:42.365Z,25.95
2018-07-06T15:48:11.430Z,26.01
2018-07-06T15:50:40.630Z,26.15
2018-07-06T15:53:09.827Z,25.89
2018-07-06T15:55:39.023Z,25.68
2018-07-06T15:58:08.089Z,25.50
2018-07-06T16:00:37.029Z,25.52
2018-07-06T16:03:06.009Z,25.47
2018-07-06T16:05:34.955Z,25.90
2018-07-06T16:08:04.001Z,26.01
2018-07-06T16:10:33.006Z,25.91
2018-07-06T16:13:02.186Z,26.16
2018-07-06T16:15:31.142Z,25.86
2018-07-06T16:18:00.144Z,25.35
2018-07-06T16:20:29.108Z,25.22
2018-07-06T16:22:58.069Z,25.10
2018-07-06T16:25:27.222Z,25.05
2018-07-06T16:27:56.142Z,25.00
2018-07-06T16:30:25.085Z,25.24
2018-07-06T16:32:54.023Z,25.29
2018-07-06T16:35:22.963Z,25.18
2018-07-06T16:37:51.899Z,25.31
2018-07-06T16:40:20.952Z,25.01
2018-07-06T16:42:49.949Z,25.01
2018-07-06T16:45:18.930Z,24.78
2018-07-06T16:47:48.094Z,24.54
2018-07-06T16:50:17.048Z,24.47
2018-07-06T16:52:46.194Z,24.47
2018-07-06T16:55:15.529Z,24.38
2018-07-06T16:57:44.488Z,24.22
2018-07-06T17:00:13.512Z,24.22
2018-07-06T17:02:42.461Z,24.15
2018-07-06T17:05:11.398Z,24.13
2018-07-06T17:07:40.448Z,24.01
2018-07-06T17:10:09.525Z,23.93
2018-07-06T17:12:38.534Z,23.99
2018-07-06T17:15:07.583Z,24.15
2018-07-06T17:17:36.553Z,24.09
2018-07-06T17:20:05.520Z,24.01
2018-07-06T17:22:35.157Z,24.09
2018-07-06T17:25:04.150Z,23.92
2018-07-06T17:27:33.193Z,23.86
2018-07-06T17:30:02.158Z,23.62
2018-07-06T17:32:31.138Z,23.44
2018-07-06T17:35:00.175Z,23.35
2018-07-06T17:37:29.225Z,23.37
2018-07-06T17:39:58.221Z,23.30
2018-07-06T17:42:27.417Z,23.23
2018-07-06T17:44:56.568Z,23.31
2018-07-06T17:47:25.537Z,23.43
2018-07-06T17:49:54.486Z,23.51
2018-07-06T17:52:24.151Z,23.51
2018-07-06T17:54:53.085Z,23.41
2018-07-06T17:57:22.049Z,23.47
2018-07-06T17:59:51.026Z,23.47
2018-07-06T18:02:19.972Z,23.45
2018-07-06T18:04:48.924Z,23.44
2018-07-06T18:07:17.907Z,23.32
2018-07-06T18:09:46.993Z,23.00
2018-07-06T18:12:15.987Z,22.89
2018-07-06T18:14:44.966Z,22.79
2018-07-06T18:17:13.974Z,22.64
2018-07-06T18:19:42.985Z,22.46
2018-07-06T18:22:11.977Z,22.41
2018-07-06T18:24:41.070Z,22.45
2018-07-06T18:27:10.741Z,22.29
2018-07-06T18:29:39.742Z,22.29
2018-07-06T18:32:09.290Z,22.23
2018-07-06T18:34:38.675Z,22.13
2018-07-06T18:37:07.766Z,22.11
2018-07-06T18:39:36.705Z,22.03
2018-07-06T18:42:05.725Z,21.93
2018-07-06T18:44:34.659Z,21.91
2018-07-06T18:47:04.075Z,21.78
2018-07-06T18:49:33.037Z,21.65
2018-07-06T18:52:02.077Z,21.63
2018-07-06T18:54:31.017Z,21.64
2018-07-06T18:56:59.962Z,21.60
2018-07-06T18:59:29.005Z,21.45
2018-07-06T19:01:58.005Z,21.42
2018-07-06T19:04:26.971Z,21.36
2018-07-06T19:06:56.589Z,21.26
2018-07-06T19:09:25.920Z,21.22
2018-07-06T19:11:54.870Z,21.14
2018-07-06T19:14:23.876Z,21.07
2018-07-06T19:16:52.902Z,20.98
2018-07-06T19:25:18.184Z,20.68
2018-07-06T19:27:47.229Z,20.59
2018-07-06T19:30:16.179Z,20.49
2018-07-06T19:32:45.115Z,20.44
2018-07-06T19:35:14.108Z,20.41
2018-07-06T19:37:44.018Z,20.37
2018-07-06T19:40:12.955Z,20.34
2018-07-06T19:42:41.901Z,20.31
2018-07-06T19:45:10.811Z,20.14
2018-07-06T19:47:39.768Z,20.10
2018-07-06T19:50:08.722Z,20.01
2018-07-06T19:52:37.698Z,19.98
2018-07-06T19:55:06.669Z,19.95
2018-07-06T19:57:35.648Z,19.88
2018-07-06T20:00:04.519Z,19.84
2018-07-06T20:02:33.412Z,19.77
2018-07-06T20:05:02.313Z,19.67
2018-07-06T20:07:31.298Z,19.64
2018-07-06T20:10:00.187Z,19.58
2018-07-06T20:12:29.092Z,19.53
2018-07-06T20:14:58.373Z,19.51
2018-07-06T20:17:27.334Z,19.45
2018-07-06T20:19:56.206Z,19.38
2018-07-06T20:22:25.160Z,19.33
2018-07-06T20:24:54.100Z,19.24
2018-07-06T20:27:23.007Z,19.19
2018-07-06T20:29:51.922Z,19.16
2018-07-06T20:32:20.825Z,19.22
2018-07-06T20:34:49.723Z,19.17
2018-07-06T20:37:18.723Z,19.10
2018-07-06T20:39:47.624Z,19.06
2018-07-06T20:42:16.574Z,18.96
2018-07-06T20:44:45.493Z,18.89
2018-07-06T20:47:14.464Z,18.79
2018-07-06T20:49:43.354Z,18.74
2018-07-06T20:52:12.280Z,18.69
2018-07-06T20:54:41.212Z,18.68
2018-07-06T20:57:10.111Z,18.66
2018-07-06T20:59:39.016Z,18.63
2018-07-06T21:02:08.029Z,18.60
2018-07-06T21:04:36.937Z,18.56
2018-07-06T21:07:06.142Z,18.53
2018-07-06T21:09:35.092Z,18.50
2018-07-06T21:12:04.223Z,18.46
2018-07-06T21:14:33.093Z,18.41
2018-07-06T21:17:01.985Z,18.35
2018-07-06T21:19:30.948Z,18.27
2018-07-06T21:21:59.884Z,18.23
2018-07-06T21:24:28.826Z,18.20
2018-07-06T21:26:57.727Z,18.13
2018-07-06T21:29:26.643Z,18.10
2018-07-06T21:31:55.561Z,18.04
2018-07-06T21:34:24.588Z,18.00
2018-07-06T21:36:53.524Z,17.94
2018-07-06T21:39:22.429Z,17.88
2018-07-06T21:41:51.447Z,17.80
2018-07-06T21:44:20.397Z,17.72
2018-07-06T21:46:49.277Z,17.70
2018-07-06T21:49:18.299Z,17.74
2018-07-06T21:51:47.236Z,17.72
2018-07-06T21:54:16.183Z,17.69
2018-07-06T21:56:45.070Z,17.66
2018-07-06T21:59:13.978Z,17.64
2018-07-06T22:01:42.949Z,17.60
2018-07-06T22:04:11.793Z,17.57
2018-07-06T22:06:40.688Z,17.59
2018-07-06T22:09:09.620Z,17.54
2018-07-06T22:11:38.546Z,17.52
2018-07-06T22:14:07.464Z,17.49
2018-07-06T22:16:36.378Z,17.47
2018-07-06T22:19:05.348Z,17.39
2018-07-06T22:21:34.295Z,17.39
2018-07-06T22:24:03.194Z,17.39
2018-07-06T22:26:32.105Z,17.32
2018-07-06T22:29:00.979Z,17.31
2018-07-06T22:31:29.888Z,17.24
2018-07-06T22:33:58.868Z,17.20
2018-07-06T22:36:27.765Z,17.16
2018-07-06T22:38:56.685Z,17.09
2018-07-06T22:41:25.604Z,17.05
2018-07-06T22:43:54.520Z,17.01
2018-07-06T22:46:23.408Z,16.99
2018-07-06T22:48:52.302Z,16.92
2018-07-06T22:51:21.233Z,16.87
2018-07-06T22:53:50.129Z,16.81
2018-07-06T22:56:19.044Z,16.76
2018-07-06T22:58:47.934Z,16.74
2018-07-06T23:01:16.830Z,16.76
2018-07-06T23:03:45.769Z,16.74
2018-07-06T23:06:14.675Z,16.78
2018-07-06T23:08:43.606Z,16.82
2018-07-06T23:11:12.772Z,16.90
2018-07-06T23:13:41.717Z,16.95
2018-07-06T23:16:10.708Z,17.01
2018-07-06T23:18:39.963Z,17.07
2018-07-06T23:21:09.260Z,17.11
2018-07-06T23:23:38.253Z,17.18
2018-07-06T23:26:07.145Z,17.30
2018-07-06T23:28:36.050Z,17.38
2018-07-06T23:31:04.946Z,17.43
2018-07-06T23:33:33.848Z,17.44
2018-07-06T23:36:02.749Z,17.50
2018-07-06T23:38:31.670Z,17.54
2018-07-06T23:41:00.621Z,17.60
2018-07-06T23:43:29.482Z,17.67
2018-07-06T23:45:58.380Z,17.68
2018-07-06T23:48:27.311Z,17.70
2018-07-06T23:50:56.360Z,17.69
2018-07-06T23:53:25.276Z,17.64
2018-07-06T23:55:54.168Z,17.58
2018-07-06T23:58:23.106Z,17.48
